Time;durP1;ratioP1;P1;durP2;ratioP2;P2;SDS_P1;SDS_P2;PMS_P1;PMS_P2;Temp;Humidity;BMP_temperature;BMP_pressure;BME280_temperature;BME280_humidity;BME280_pressure;Samples;Min_cycle;Max_cycle;Signal;HPM_P1;HPM_P2
2022/08/18 00:01:32;;;;;;;6.38;1.80;;;;;;;13.41;100.00;100972.47;5057838;28;20048;-83
2022/08/18 00:03:59;;;;;;;7.85;1.63;;;;;;;13.82;100.00;100998.63;5052274;28;20475;-84
2022/08/18 00:06:45;;;;;;;7.25;1.77;;;;;;;13.82;100.00;101007.38;5039519;28;20045;-83
2022/08/18 00:09:12;;;;;;;7.00;1.80;;;;;;;13.71;100.00;100995.66;5058115;28;20048;-83
2022/08/18 00:11:41;;;;;;;6.43;1.88;;;;;;;13.77;100.00;100996.19;5045107;28;20056;-84
2022/08/18 00:14:15;;;;;;;3.95;1.50;;;;;;;14.00;100.00;100989.00;5044607;28;20045;-83
2022/08/18 00:16:49;;;;;;;5.57;1.88;;;;;;;13.80;100.00;100968.91;5043806;28;20085;-83
2022/08/18 00:19:16;;;;;;;7.38;1.60;;;;;;;13.82;100.00;100981.03;5058169;28;20410;-83
2022/08/18 00:21:43;;;;;;;4.65;1.33;;;;;;;13.82;100.00;100969.69;5057338;28;20390;-84
2022/08/18 00:24:09;;;;;;;5.28;1.52;;;;;;;13.97;100.00;100970.72;5057275;28;20056;-83
2022/08/18 00:26:36;;;;;;;4.97;1.65;;;;;;;14.07;100.00;100971.13;5057717;28;20056;-84
2022/08/18 00:29:03;;;;;;;5.00;1.75;;;;;;;13.81;100.00;100945.16;5057433;28;20051;-83
2022/08/18 00:31:32;;;;;;;5.80;1.58;;;;;;;14.02;100.00;100960.81;5058941;28;20049;-84
2022/08/18 00:33:59;;;;;;;6.47;1.65;;;;;;;13.95;100.00;100973.44;5057797;28;20045;-83
2022/08/18 00:36:26;;;;;;;5.75;1.42;;;;;;;13.94;100.00;100973.50;5053834;28;20556;-83
2022/08/18 00:38:53;;;;;;;5.50;1.50;;;;;;;14.05;100.00;100972.03;5051557;28;20525;-83
2022/08/18 00:41:20;;;;;;;7.95;2.03;;;;;;;14.11;100.00;100992.00;5057463;28;20053;-83
2022/08/18 00:43:50;;;;;;;9.70;1.75;;;;;;;14.13;100.00;100990.13;5057531;28;20447;-83
2022/08/18 00:46:33;;;;;;;7.43;1.50;;;;;;;13.67;100.00;100977.38;5057418;28;20479;-84
2022/08/18 00:49:01;;;;;;;5.17;1.50;;;;;;;13.85;100.00;100972.16;5057610;28;20479;-84
2022/08/18 00:51:42;;;;;;;8.20;2.08;;;;;;;13.75;100.00;100955.09;5057806;28;20040;-83
2022/08/18 00:54:22;;;;;;;6.65;2.20;;;;;;;13.60;100.00;100970.69;5057023;28;20049;-84
2022/08/18 00:56:54;;;;;;;6.07;1.77;;;;;;;13.55;100.00;100958.69;5053801;28;20051;-83
2022/08/18 00:59:44;;;;;;;7.93;2.00;;;;;;;13.77;100.00;100959.34;5054697;28;20081;-84
2022/08/18 01:02:17;;;;;;;5.75;1.60;;;;;;;13.98;100.00;100968.00;5041642;28;20819;-84
2022/08/18 01:04:54;;;;;;;4.35;1.33;;;;;;;13.89;100.00;100951.81;5041359;28;20045;-83
2022/08/18 01:07:39;;;;;;;5.20;1.63;;;;;;;13.86;100.00;100961.56;5041038;28;20380;-84
2022/08/18 01:10:06;;;;;;;6.68;1.63;;;;;;;13.85;100.00;100944.06;5041517;28;20411;-83
2022/08/18 01:12:33;;;;;;;5.68;1.65;;;;;;;13.85;100.00;100943.22;5054172;28;20049;-83
2022/08/18 01:15:14;;;;;;;6.00;1.73;;;;;;;13.74;100.00;100935.84;5053902;28;20053;-84
2022/08/18 01:23:31;;;;;;;4.97;1.40;;;;;;;13.48;100.00;100918.66;5041577;28;20045;-84
2022/08/18 01:26:03;;;;;;;8.07;1.50;;;;;;;13.51;100.00;100923.78;5053364;28;20055;-84
2022/08/18 01:28:33;;;;;;;6.13;1.42;;;;;;;13.44;100.00;100938.13;5055075;28;20053;-83
2022/08/18 01:31:01;;;;;;;5.78;1.50;;;;;;;13.55;100.00;100922.69;5053623;28;20048;-83
2022/08/18 01:33:31;;;;;;;7.60;1.85;;;;;;;13.47;100.00;100917.81;5053288;28;20051;-83
2022/08/18 01:36:15;;;;;;;7.82;1.80;;;;;;;13.76;100.00;100936.63;5053671;28;20044;-83
2022/08/18 01:38:43;;;;;;;;;;;;;;;13.86;100.00;100921.22;5052897;28;20045;-83
2022/08/18 01:41:10;;;;;;;5.70;1.75;;;;;;;13.64;100.00;100911.72;5053110;28;19927;-83
2022/08/18 01:43:57;;;;;;;4.75;1.73;;;;;;;13.56;100.00;100918.28;5053556;28;20080;-83
2022/08/18 01:46:25;;;;;;;5.00;1.30;;;;;;;13.43;100.00;100903.06;5053343;28;20085;-83
2022/08/18 01:48:52;;;;;;;6.85;1.70;;;;;;;13.31;100.00;100919.41;5053274;28;20052;-83
2022/08/18 01:51:20;;;;;;;5.40;1.75;;;;;;;13.50;100.00;100901.00;5053353;28;20049;-84
2022/08/18 01:54:06;;;;;;;5.05;1.20;;;;;;;13.59;100.00;100899.72;5040004;28;20049;-84
2022/08/18 01:56:33;;;;;;;8.52;1.60;;;;;;;13.61;100.00;100882.94;5053709;28;20045;-83
2022/08/18 01:58:59;;;;;;;6.93;1.70;;;;;;;13.70;100.00;100888.69;5054760;28;20391;-84
2022/08/18 02:01:26;;;;;;;5.20;1.63;;;;;;;13.72;100.00;100877.16;5053188;28;20045;-84
2022/08/18 02:04:05;;;;;;;6.43;1.75;;;;;;;13.76;100.00;100883.97;5054389;28;20049;-83
2022/08/18 02:06:53;;;;;;;6.50;1.70;;;;;;;13.82;100.00;100875.78;5052912;28;20056;-83
2022/08/18 02:09:20;;;;;;;3.58;1.30;;;;;;;13.75;100.00;100877.00;5052582;28;20049;-83
2022/08/18 02:11:49;;;;;;;6.15;1.60;;;;;;;13.71;100.00;100872.81;5038972;28;20469;-83
2022/08/18 02:14:19;;;;;;;6.50;1.38;;;;;;;13.80;100.00;100866.25;5053047;28;20079;-83
2022/08/18 02:16:52;;;;;;;6.80;1.63;;;;;;;13.75;100.00;100863.00;5052998;28;20541;-83
2022/08/18 02:19:24;;;;;;;5.80;1.25;;;;;;;14.01;100.00;100880.16;5052729;28;20788;-83
2022/08/18 02:21:51;;;;;;;7.50;1.42;;;;;;;13.88;100.00;100858.81;5052356;28;20063;-83
2022/08/18 02:24:18;;;;;;;6.82;1.50;;;;;;;13.90;100.00;100856.13;5039529;28;20051;-83
2022/08/18 02:26:45;;;;;;;6.25;1.27;;;;;;;13.89;100.00;100839.50;5052768;28;20048;-83
2022/08/18 02:29:12;;;;;;;3.95;1.40;;;;;;;13.98;100.00;100840.81;5052583;28;20059;-83
2022/08/18 02:31:39;;;;;;;4.88;1.45;;;;;;;14.07;100.00;100839.50;5044561;28;20049;-83
2022/08/18 02:34:05;;;;;;;5.63;1.40;;;;;;;14.05;100.00;100832.50;5052672;28;20506;-83
2022/08/18 02:36:32;;;;;;;4.30;1.42;;;;;;;14.01;100.00;100824.88;5052582;28;20059;-83
2022/08/18 02:38:59;;;;;;;7.70;1.70;;;;;;;14.07;100.00;100821.91;5053295;28;20049;-83
2022/08/18 02:41:27;;;;;;;5.72;2.22;;;;;;;14.20;100.00;100827.38;5053865;28;20049;-82
2022/08/18 02:43:55;;;;;;;5.75;1.70;;;;;;;14.00;100.00;100816.09;5037777;28;20049;-83
2022/08/18 02:46:22;;;;;;;5.50;1.30;;;;;;;14.21;100.00;100810.69;5052351;28;20052;-83
2022/08/18 02:48:56;;;;;;;5.38;1.40;;;;;;;14.21;100.00;100805.41;5052168;28;20132;-83
2022/08/18 02:51:22;;;;;;;3.63;1.70;;;;;;;14.07;100.00;100794.75;5052323;28;20532;-83
2022/08/18 02:53:52;;;;;;;8.20;1.67;;;;;;;14.17;100.00;100814.41;5052018;28;20069;-83
2022/08/18 02:56:28;;;;;;;8.45;1.45;;;;;;;14.11;100.00;100796.28;5052065;28;20133;-83
2022/08/18 02:59:10;;;;;;;4.85;1.40;;;;;;;14.14;100.00;100801.41;5051412;28;20072;-83
2022/08/18 03:01:39;;;;;;;5.38;1.58;;;;;;;14.08;100.00;100792.03;5038148;28;20060;-83
2022/08/18 03:04:07;;;;;;;3.03;1.10;;;;;;;13.90;100.00;100785.94;5052497;28;20120;-83
2022/08/18 03:06:36;;;;;;;5.13;1.33;;;;;;;14.04;100.00;100793.97;5051831;28;20049;-83
2022/08/18 03:09:07;;;;;;;4.88;1.48;;;;;;;13.75;100.00;100784.06;5037975;28;20059;-83
2022/08/18 03:11:35;;;;;;;8.38;1.95;;;;;;;13.78;100.00;100786.56;5051707;28;20499;-83
2022/08/18 03:14:04;;;;;;;7.10;1.45;;;;;;;13.81;100.00;100776.72;5037632;28;20041;-83
2022/08/18 03:16:32;;;;;;;4.55;1.42;;;;;;;13.77;100.00;100779.56;5051910;28;20055;-83
2022/08/18 03:19:00;;;;;;;7.45;1.45;;;;;;;13.91;100.00;100792.88;5051236;28;20045;-83
2022/08/18 03:21:30;;;;;;;6.88;1.60;;;;;;;13.91;100.00;100795.50;5052064;28;20473;-83
2022/08/18 03:23:58;;;;;;;13.05;2.10;;;;;;;13.85;100.00;100786.16;5051528;28;20045;-83
2022/08/18 03:26:28;;;;;;;5.75;1.50;;;;;;;14.00;100.00;100791.56;5051159;28;20049;-83
2022/08/18 03:28:58;;;;;;;7.97;1.95;;;;;;;13.98;100.00;100798.69;5051305;28;20057;-83
2022/08/18 03:31:30;;;;;;;6.90;1.60;;;;;;;13.83;100.00;100789.81;5052370;28;20502;-83
2022/08/18 03:33:58;;;;;;;5.53;1.40;;;;;;;13.83;100.00;100771.38;5051464;28;20056;-83
2022/08/18 03:36:29;;;;;;;10.25;2.17;;;;;;;13.80;100.00;100774.16;5045224;28;20049;-83
2022/08/18 03:38:56;;;;;;;5.60;1.75;;;;;;;13.55;100.00;100725.41;5050298;28;20045;-83
2022/08/18 03:41:25;;;;;;;11.27;1.65;;;;;;;14.05;100.00;100777.22;5051561;28;20048;-83
2022/08/18 03:44:13;;;;;;;6.38;1.52;;;;;;;14.10;100.00;100773.53;5051203;28;20045;-83
2022/08/18 03:46:42;;;;;;;9.48;1.60;;;;;;;13.97;100.00;100753.09;5043173;28;20041;-82
2022/08/18 03:49:09;;;;;;;8.63;1.42;;;;;;;13.96;100.00;100748.75;5051038;28;20498;-83
2022/08/18 03:51:36;;;;;;;6.22;1.40;;;;;;;14.03;100.00;100736.97;5043967;28;20056;-84
2022/08/18 03:54:05;;;;;;;6.80;1.63;;;;;;;14.04;100.00;100738.69;5045268;28;20055;-83
2022/08/18 03:56:37;;;;;;;7.00;1.58;;;;;;;14.01;100.00;100716.94;5041569;28;20143;-82
2022/08/18 03:59:10;;;;;;;8.18;1.90;;;;;;;14.07;100.00;100723.66;5051376;28;20075;-83
2022/08/18 04:01:40;;;;;;;9.00;1.63;;;;;;;14.05;100.00;100724.56;5051400;28;20414;-83
2022/08/18 04:04:11;;;;;;;6.15;1.50;;;;;;;14.03;100.00;100717.69;5050871;28;20075;-84
2022/08/18 04:06:50;;;;;;;8.20;1.80;;;;;;;14.03;100.00;100708.00;5048879;28;20445;-84
2022/08/18 04:09:17;;;;;;;4.80;1.30;;;;;;;14.14;100.00;100719.78;5051036;28;20053;-84
2022/08/18 04:11:45;;;;;;;6.88;1.70;;;;;;;14.10;100.00;100712.97;5050521;28;20398;-83
2022/08/18 04:14:14;;;;;;;8.52;1.80;;;;;;;13.80;100.00;100693.41;5052136;28;20128;-84
2022/08/18 04:16:42;;;;;;;6.65;1.65;;;;;;;13.93;100.00;100698.88;5043387;28;20476;-83
2022/08/18 04:19:12;;;;;;;6.60;1.70;;;;;;;14.17;100.00;100720.47;5045680;28;20049;-83
2022/08/18 04:21:41;;;;;;;9.35;2.60;;;;;;;13.96;100.00;100698.75;5035806;28;20072;-83
2022/08/18 04:24:10;;;;;;;11.73;2.40;;;;;;;14.00;100.00;100695.00;5044899;28;20056;-84
2022/08/18 04:26:44;;;;;;;10.80;2.33;;;;;;;14.01;100.00;100701.97;5049791;28;20049;-83
2022/08/18 04:29:15;;;;;;;6.63;2.03;;;;;;;14.19;100.00;100686.16;5050789;28;20055;-84
2022/08/18 04:31:43;;;;;;;15.00;2.95;;;;;;;14.24;100.00;100681.50;5042715;28;20066;-83
2022/08/18 04:34:11;;;;;;;6.93;2.00;;;;;;;14.37;100.00;100681.66;5056120;28;20045;-83
2022/08/18 04:36:38;;;;;;;8.30;2.45;;;;;;;14.19;100.00;100679.09;5046895;28;20045;-83
2022/08/18 04:39:07;;;;;;;8.20;2.10;;;;;;;14.32;100.00;100660.00;5046364;28;20049;-83
2022/08/18 04:41:34;;;;;;;14.18;3.00;;;;;;;14.35;100.00;100651.94;5050322;28;20049;-83
2022/08/18 04:44:06;;;;;;;10.98;2.75;;;;;;;14.24;100.00;100661.25;5043818;28;20060;-83
2022/08/18 04:46:42;;;;;;;9.82;2.28;;;;;;;14.24;100.00;100650.72;5053482;28;20053;-84
2022/08/18 04:49:10;;;;;;;12.05;3.45;;;;;;;14.08;100.00;100644.59;5054314;28;20052;-83
2022/08/18 04:51:41;;;;;;;10.52;3.05;;;;;;;14.15;100.00;100643.34;5054347;28;20053;-84
2022/08/18 04:54:28;;;;;;;11.13;2.78;;;;;;;14.23;100.00;100620.06;5044033;28;20060;-83
2022/08/18 04:56:55;;;;;;;9.05;2.53;;;;;;;14.33;100.00;100609.88;5043247;28;20045;-83
2022/08/18 04:59:22;;;;;;;7.60;2.15;;;;;;;14.34;100.00;100615.97;5055690;28;20483;-83
2022/08/18 05:01:48;;;;;;;18.30;3.20;;;;;;;14.21;100.00;100600.84;5054631;28;20052;-83
2022/08/18 05:04:16;;;;;;;8.57;2.20;;;;;;;14.53;100.00;100640.38;5054780;28;20041;-83
2022/08/18 05:06:44;;;;;;;7.30;2.40;;;;;;;14.49;100.00;100638.84;5054559;28;20071;-83
2022/08/18 05:09:14;;;;;;;19.73;3.00;;;;;;;14.54;100.00;100649.16;5054199;28;20747;-83
2022/08/18 05:11:49;;;;;;;11.60;2.65;;;;;;;14.58;100.00;100651.53;5044651;28;20061;-83
2022/08/18 05:14:16;;;;;;;14.15;3.53;;;;;;;14.41;100.00;100638.41;5053566;28;20060;-83
2022/08/18 05:16:44;;;;;;;10.60;2.90;;;;;;;14.63;100.00;100647.81;5054315;28;20136;-83
2022/08/18 05:19:20;;;;;;;11.35;3.00;;;;;;;14.75;100.00;100649.72;5053874;28;20053;-83
2022/08/18 05:21:52;;;;;;;9.35;2.70;;;;;;;14.82;100.00;100640.56;5053251;28;20132;-83
2022/08/18 05:24:28;;;;;;;12.93;2.97;;;;;;;14.46;100.00;100594.22;5054746;28;20068;-83
2022/08/18 05:27:03;;;;;;;15.95;3.40;;;;;;;14.60;100.00;100609.28;5042767;28;20103;-84
2022/08/18 05:29:35;;;;;;;14.23;3.33;;;;;;;14.76;100.00;100611.91;5047696;28;20108;-83
2022/08/18 05:32:12;;;;;;;17.10;3.55;;;;;;;14.75;100.00;100605.81;5046453;28;20059;-83
2022/08/18 05:35:11;;;;;;;19.73;3.10;;;;;;;14.78;100.00;100587.19;5042412;28;20049;-84
2022/08/18 05:38:21;;;;;;;14.75;3.53;;;;;;;14.97;100.00;100599.28;5040769;28;20049;-84
2022/08/18 05:41:10;;;;;;;11.88;3.42;;;;;;;14.89;100.00;100593.59;5052702;28;20609;-84
2022/08/18 05:43:45;;;;;;;12.90;2.55;;;;;;;14.76;100.00;100602.22;5030436;28;20049;-82
2022/08/18 05:46:20;;;;;;;19.58;3.90;;;;;;;14.72;100.00;100603.34;5052892;28;20494;-83
2022/08/18 05:48:47;;;;;;;16.33;3.35;;;;;;;14.64;100.00;100599.44;5053533;28;20454;-84
2022/08/18 05:51:26;;;;;;;16.05;4.03;;;;;;;14.80;100.00;100587.06;5053412;28;20483;-84
2022/08/18 05:57:01;;;;;;;17.60;4.13;;;;;;;14.71;100.00;100598.16;5031041;28;20044;-84
2022/08/18 05:59:36;;;;;;;17.02;3.78;;;;;;;14.77;100.00;100576.72;5053630;28;20438;-84
2022/08/18 06:02:13;;;;;;;16.25;3.22;;;;;;;14.53;100.00;100556.06;5047025;28;20045;-84
2022/08/18 06:04:44;;;;;;;13.48;3.20;;;;;;;14.87;100.00;100596.31;5053246;28;20128;-84
2022/08/18 06:07:17;;;;;;;14.55;3.30;;;;;;;15.02;100.00;100589.31;5049331;28;20042;-84
2022/08/18 06:09:53;;;;;;;15.57;3.55;;;;;;;14.91;100.00;100578.53;5043759;28;20817;-84
2022/08/18 06:12:23;;;;;;;16.42;3.92;;;;;;;14.74;100.00;100561.94;5052708;28;20051;-84
2022/08/18 06:14:51;;;;;;;16.33;3.60;;;;;;;14.73;100.00;100552.34;5054759;28;20041;-83
2022/08/18 06:17:34;;;;;;;12.45;3.33;;;;;;;14.94;100.00;100567.81;5052819;28;20076;-84
2022/08/18 06:20:27;;;;;;;;;;;;;;;14.96;100.00;100572.09;5054382;28;20045;-84
2022/08/18 06:23:13;;;;;;;13.88;2.83;;;;;;;15.06;100.00;100574.19;5040673;28;19921;-84
2022/08/18 06:25:54;;;;;;;12.30;2.78;;;;;;;14.93;100.00;100514.25;5053504;28;20041;-84
2022/08/18 06:28:21;;;;;;;14.40;3.20;;;;;;;14.97;100.00;100528.94;5043283;28;20056;-84
2022/08/18 06:31:08;;;;;;;17.23;3.30;;;;;;;14.80;100.00;100551.03;5047637;28;20048;-83
2022/08/18 06:34:20;;;;;;;13.95;3.67;;;;;;;15.08;100.00;100544.13;5044430;28;20052;-84
2022/08/18 06:36:54;;;;;;;21.88;3.83;;;;;;;15.19;100.00;100548.75;5041632;28;20049;-83
2022/08/18 06:39:44;;;;;;;16.92;4.00;;;;;;;15.06;100.00;100542.53;5052778;28;20053;-83
2022/08/18 06:42:17;;;;;;;11.65;2.97;;;;;;;15.15;100.00;100531.44;5053239;28;20049;-84
2022/08/18 06:44:49;;;;;;;10.90;3.25;;;;;;;15.17;100.00;100529.53;5048661;28;20482;-83
2022/08/18 06:47:27;;;;;;;11.50;2.72;;;;;;;15.36;100.00;100522.22;5049055;28;20049;-84
2022/08/18 06:49:57;;;;;;;17.65;4.22;;;;;;;15.10;100.00;100525.56;5047623;28;20053;-82
2022/08/18 06:52:49;;;;;;;16.77;4.07;;;;;;;14.89;100.00;100532.97;5051988;28;20049;-83
2022/08/18 06:55:29;;;;;;;11.63;3.25;;;;;;;15.10;100.00;100533.50;5040002;28;20059;-83
2022/08/18 06:57:59;;;;;;;17.08;3.95;;;;;;;14.79;100.00;100522.97;5052521;28;20048;-84
2022/08/18 07:00:30;;;;;;;16.58;4.07;;;;;;;15.11;100.00;100537.84;5049382;28;20057;-84
2022/08/18 07:03:19;;;;;;;19.25;3.90;;;;;;;15.20;100.00;100524.09;5033629;28;20053;-84
2022/08/18 07:06:01;;;;;;;16.58;3.30;;;;;;;15.13;100.00;100522.78;5047815;28;20047;-83
2022/08/18 07:08:32;;;;;;;18.52;3.83;;;;;;;15.32;100.00;100525.16;5053344;28;20041;-83
2022/08/18 07:11:16;;;;;;;12.88;3.58;;;;;;;15.46;100.00;100527.78;5039243;28;20076;-83
2022/08/18 07:13:46;;;;;;;21.15;4.20;;;;;;;14.68;100.00;100485.00;5051371;28;20064;-83
2022/08/18 07:16:34;;;;;;;11.05;3.25;;;;;;;14.73;100.00;100480.31;5042658;28;20052;-84
2022/08/18 07:19:28;;;;;;;18.52;2.90;;;;;;;15.09;100.00;100506.28;5038634;28;20448;-83
2022/08/18 07:22:00;;;;;;;13.30;3.40;;;;;;;15.31;100.00;100516.38;5053229;28;20041;-83
2022/08/18 07:24:31;;;;;;;16.20;4.13;;;;;;;15.24;100.00;100515.03;5039252;28;20081;-84
2022/08/18 07:27:03;;;;;;;17.08;3.45;;;;;;;15.43;100.00;100506.88;5053451;28;20803;-83
2022/08/18 07:29:33;;;;;;;13.67;3.30;;;;;;;15.41;100.00;100481.53;5052082;28;20482;-83
2022/08/18 07:32:09;;;;;;;14.60;4.15;;;;;;;15.33;100.00;100482.00;5051935;28;20044;-83
2022/08/18 07:34:52;;;;;;;17.35;3.65;;;;;;;15.02;100.00;100441.69;5051776;28;20045;-83
2022/08/18 07:37:28;;;;;;;18.83;4.70;;;;;;;15.34;100.00;100455.53;5052983;28;20136;-83
2022/08/18 07:39:57;;;;;;;11.30;3.13;;;;;;;15.57;100.00;100490.19;5033084;28;20049;-84
2022/08/18 07:42:33;;;;;;;13.68;4.15;;;;;;;15.25;100.00;100439.44;5032076;28;20050;-83
2022/08/18 07:45:41;;;;;;;19.23;3.90;;;;;;;15.05;100.00;100420.41;5042421;28;20147;-83
2022/08/18 07:48:20;;;;;;;24.30;4.72;;;;;;;15.26;100.00;100485.94;5051566;28;20059;-84
2022/08/18 07:51:22;;;;;;;12.43;4.38;;;;;;;15.47;100.00;100481.13;5043359;28;20067;-84
2022/08/18 07:54:00;;;;;;;14.30;3.22;;;;;;;15.53;100.00;100475.50;5052748;28;20674;-84
2022/08/18 07:56:54;;;;;;;13.35;2.92;;;;;;;15.67;100.00;100471.97;5051503;28;20145;-82
2022/08/18 07:59:52;;;;;;;15.93;3.70;;;;;;;15.25;100.00;100460.53;5041896;28;20048;-84
2022/08/18 08:02:38;;;;;;;13.30;3.55;;;;;;;15.04;100.00;100433.69;5037270;28;20050;-83
2022/08/18 08:05:13;;;;;;;10.75;2.55;;;;;;;15.54;100.00;100462.19;5053197;28;20063;-84
2022/08/18 08:07:55;;;;;;;18.80;3.95;;;;;;;15.47;100.00;100465.31;5036710;28;20064;-83
2022/08/18 08:10:45;;;;;;;12.75;3.45;;;;;;;15.54;100.00;100463.97;5051847;28;20049;-83
2022/08/18 08:13:30;;;;;;;15.00;3.92;;;;;;;15.54;100.00;100454.25;5056624;28;20048;-83
2022/08/18 08:16:37;;;;;;;13.98;3.55;;;;;;;15.36;100.00;100453.63;5036992;28;20388;-83
2022/08/18 08:19:23;;;;;;;18.02;3.50;;;;;;;15.46;100.00;100451.28;5038811;28;20075;-83
2022/08/18 08:22:20;;;;;;;14.32;3.88;;;;;;;15.22;100.00;100437.81;5056005;28;20053;-83
2022/08/18 08:24:56;;;;;;;15.45;4.18;;;;;;;15.47;100.00;100445.03;5056573;28;20045;-83
2022/08/18 08:27:25;;;;;;;13.35;3.55;;;;;;;15.73;100.00;100447.84;5056323;28;20053;-83
2022/08/18 08:30:08;;;;;;;13.80;4.70;;;;;;;15.61;100.00;100452.09;5054778;28;20051;-84
2022/08/18 08:32:41;;;;;;;15.25;3.35;;;;;;;15.19;100.00;100422.16;5055141;28;20067;-83
2022/08/18 08:35:22;;;;;;;16.05;3.67;;;;;;;15.36;100.00;100429.03;5046428;28;20395;-84
2022/08/18 08:38:20;;;;;;;20.67;5.20;;;;;;;15.54;100.00;100438.44;5040972;28;20049;-83
2022/08/18 08:41:14;;;;;;;11.80;3.55;;;;;;;15.72;100.00;100403.91;5055001;28;20053;-84
2022/08/18 08:43:56;;;;;;;16.38;3.83;;;;;;;15.87;100.00;100407.41;5056140;28;20045;-84
2022/08/18 08:46:29;;;;;;;18.92;3.65;;;;;;;15.56;100.00;100383.78;5040616;28;20045;-83
2022/08/18 08:49:07;;;;;;;17.88;4.10;;;;;;;15.74;100.00;100431.03;5046068;28;20047;-84
2022/08/18 08:51:43;;;;;;;9.50;3.33;;;;;;;16.15;100.00;100435.47;5049245;28;20055;-83
2022/08/18 08:54:22;;;;;;;17.20;4.05;;;;;;;15.68;100.00;100384.78;5053964;28;20053;-83
2022/08/18 08:56:51;;;;;;;14.57;4.13;;;;;;;15.52;100.00;100373.53;5054868;28;20055;-84
2022/08/18 08:59:20;;;;;;;11.30;3.05;;;;;;;15.83;100.00;100358.34;5054464;28;20059;-83
2022/08/18 09:01:56;;;;;;;11.10;3.20;;;;;;;16.31;100.00;100408.91;5055615;28;20127;-84
2022/08/18 09:04:42;;;;;;;8.68;2.58;;;;;;;16.29;100.00;100410.81;5055757;28;20051;-83
2022/08/18 09:07:54;;;;;;;8.68;2.97;;;;;;;16.36;100.00;100390.06;5051934;28;20403;-83
2022/08/18 09:10:39;;;;;;;12.82;3.47;;;;;;;16.32;100.00;100405.28;5049836;28;20133;-84
2022/08/18 09:13:24;;;;;;;15.40;4.22;;;;;;;16.01;100.00;100409.13;5050312;28;20046;-84
2022/08/18 09:16:22;;;;;;;12.65;3.60;;;;;;;16.05;100.00;100407.97;5053537;28;20041;-82
2022/08/18 09:18:58;;;;;;;16.15;3.22;;;;;;;16.10;100.00;100368.91;5040227;28;20426;-84
2022/08/18 09:21:44;;;;;;;10.88;2.60;;;;;;;16.47;100.00;100392.88;5059381;28;20063;-83
2022/08/18 09:24:28;;;;;;;17.17;4.40;;;;;;;16.20;100.00;100392.91;5052793;28;20044;-83
2022/08/18 09:27:01;;;;;;;18.40;4.68;;;;;;;16.22;100.00;100380.44;5054011;28;20047;-83
2022/08/18 09:29:37;;;;;;;12.70;3.72;;;;;;;16.30;100.00;100357.00;5055503;28;20486;-84
2022/08/18 09:32:19;;;;;;;12.48;4.05;;;;;;;16.52;100.00;100361.69;5054222;28;20049;-84
2022/08/18 09:35:02;;;;;;;14.50;3.33;;;;;;;16.38;100.00;100332.69;5056793;28;20448;-84
2022/08/18 09:37:37;;;;;;;18.13;4.78;;;;;;;16.13;100.00;100369.56;5042900;28;20041;-83
2022/08/18 09:43:38;;;;;;;19.80;3.70;;;;;;;16.41;100.00;100333.31;5041141;28;20057;-83
2022/08/18 09:46:07;;;;;;;12.68;3.05;;;;;;;16.56;100.00;100363.16;5051415;28;20156;-83
2022/08/18 09:48:40;;;;;;;11.38;4.07;;;;;;;16.38;100.00;100315.06;5050641;28;20053;-84
2022/08/18 09:51:17;;;;;;;12.05;4.10;;;;;;;16.76;100.00;100348.56;5042979;28;20049;-81
2022/08/18 09:53:44;;;;;;;11.85;3.90;;;;;;;16.63;100.00;100350.38;5040796;28;20445;-82
2022/08/18 09:56:17;;;;;;;9.45;3.40;;;;;;;16.83;100.00;100341.03;5053146;28;20056;-83
2022/08/18 09:59:01;;;;;;;12.07;3.97;;;;;;;16.48;100.00;100342.56;5053786;28;20051;-83
2022/08/18 10:01:39;;;;;;;13.07;3.70;;;;;;;16.50;100.00;100310.72;5054935;28;20670;-84
2022/08/18 10:04:27;;;;;;;15.05;4.15;;;;;;;16.43;100.00;100335.88;5039358;28;20057;-83
2022/08/18 10:07:32;;;;;;;12.00;3.60;;;;;;;16.79;100.00;100327.19;5051571;28;20053;-83
2022/08/18 10:10:30;;;;;;;;;;;;;;;17.05;100.00;100327.16;5047597;28;20128;-84
2022/08/18 10:13:35;;;;;;;10.00;3.20;;;;;;;17.03;100.00;100294.69;5044915;28;19920;-84
2022/08/18 10:16:16;;;;;;;12.73;4.10;;;;;;;17.00;100.00;100310.81;5035811;28;20365;-83
2022/08/18 10:19:03;;;;;;;15.18;4.28;;;;;;;17.27;100.00;100310.63;5034505;28;20132;-84
2022/08/18 10:21:58;;;;;;;12.13;3.72;;;;;;;17.26;100.00;100311.56;5049018;28;20136;-83
2022/08/18 10:25:07;;;;;;;10.60;4.35;;;;;;;17.42;100.00;100303.34;5050704;28;20049;-83
2022/08/18 10:27:54;;;;;;;9.48;3.63;;;;;;;17.43;100.00;100286.53;4978313;28;20077;-84
2022/08/18 10:30:46;;;;;;;11.15;3.95;;;;;;;17.57;100.00;100296.09;4992486;28;20061;-82
2022/08/18 10:33:57;;;;;;;12.52;3.75;;;;;;;17.70;100.00;100296.88;5040765;28;20057;-83
2022/08/18 10:36:42;;;;;;;11.25;3.80;;;;;;;17.79;100.00;100298.00;5054465;28;20067;-84
2022/08/18 10:39:12;;;;;;;11.75;3.40;;;;;;;17.43;100.00;100276.78;5035507;28;20140;-84
2022/08/18 10:41:55;;;;;;;10.93;4.20;;;;;;;17.52;100.00;100272.63;5046839;28;20046;-83
2022/08/18 10:44:26;;;;;;;12.48;4.10;;;;;;;17.36;100.00;100307.31;5049160;28;20056;-83
2022/08/18 10:46:57;;;;;;;;;;;;;;;17.41;100.00;100310.47;5049846;28;20463;-83
2022/08/18 10:49:31;;;;;;;15.77;3.53;;;;;;;17.31;100.00;100264.44;5034120;28;20363;-81
2022/08/18 10:52:00;;;;;;;12.15;4.10;;;;;;;17.58;100.00;100303.06;5050776;28;20049;-83
2022/08/18 10:54:53;;;;;;;13.57;4.15;;;;;;;17.64;100.00;100302.63;5032302;28;20111;-83
2022/08/18 10:57:46;;;;;;;11.23;3.85;;;;;;;17.63;100.00;100295.63;5038540;28;20048;-83
2022/08/18 11:00:18;;;;;;;14.20;4.90;;;;;;;17.33;100.00;100298.75;5052367;28;20124;-82
2022/08/18 11:02:51;;;;;;;13.45;5.05;;;;;;;16.81;100.00;100230.09;5045124;28;20128;-83
2022/08/18 11:05:38;;;;;;;11.23;4.20;;;;;;;17.25;100.00;100254.34;5037768;28;20045;-81
2022/08/18 11:08:13;;;;;;;11.50;4.95;;;;;;;17.19;100.00;100255.63;5053658;28;20663;-83
2022/08/18 11:10:49;;;;;;;11.27;5.38;;;;;;;17.13;100.00;100258.72;5048110;28;20073;-83
2022/08/18 11:13:59;;;;;;;12.68;5.60;;;;;;;16.88;100.00;100254.34;5046512;28;20049;-82
2022/08/18 11:17:04;;;;;;;9.10;4.10;;;;;;;17.32;100.00;100276.75;5053518;28;20128;-83
2022/08/18 11:19:41;;;;;;;12.98;4.57;;;;;;;17.36;100.00;100262.31;5035445;28;20049;-83
2022/08/18 11:22:26;;;;;;;14.25;4.45;;;;;;;17.56;100.00;100278.53;5047767;28;20048;-83
2022/08/18 11:25:00;;;;;;;15.57;5.00;;;;;;;17.50;100.00;100286.94;5052430;28;20045;-82
2022/08/18 11:27:36;;;;;;;13.38;4.35;;;;;;;17.48;100.00;100257.94;5035965;28;20484;-83
2022/08/18 11:30:08;;;;;;;17.55;3.83;;;;;;;17.16;100.00;100239.13;5042653;28;20049;-83
2022/08/18 11:32:41;;;;;;;14.68;5.10;;;;;;;17.36;100.00;100240.31;5051642;28;20151;-81
2022/08/18 11:35:21;;;;;;;13.90;4.18;;;;;;;17.60;100.00;100245.56;5036778;28;20471;-83
2022/08/18 11:37:58;;;;;;;13.85;4.57;;;;;;;17.74;100.00;100274.53;5036555;28;20140;-81
2022/08/18 11:40:39;;;;;;;9.65;4.00;;;;;;;17.77;100.00;100257.53;5052633;28;20483;-83
2022/08/18 11:43:33;;;;;;;11.68;4.00;;;;;;;17.74;100.00;100253.34;5040800;28;20128;-82
2022/08/18 11:46:24;;;;;;;16.40;5.82;;;;;;;17.59;100.00;100262.41;5051579;28;20099;-82
2022/08/18 11:48:58;;;;;;;10.73;4.18;;;;;;;17.53;100.00;100236.41;5033116;28;20073;-83
2022/08/18 11:51:30;;;;;;;11.43;4.50;;;;;;;17.51;100.00;100247.13;5046550;28;20056;-82
2022/08/18 11:53:59;;;;;;;;;;;;;;;17.51;100.00;100244.47;5047985;28;20064;-82
2022/08/18 11:56:33;;;;;;;12.93;4.95;;;;;;;17.38;100.00;100241.03;5052047;28;19927;-82
2022/08/18 11:59:30;;;;;;;14.85;5.20;;;;;;;17.16;100.00;100237.31;5038310;28;20410;-82
2022/08/18 12:02:19;;;;;;;16.98;6.03;;;;;;;17.24;100.00;100218.25;5051736;28;20052;-83
2022/08/18 12:04:53;;;;;;;13.63;5.28;;;;;;;17.24;100.00;100178.56;5052826;28;20490;-83
2022/08/18 12:07:32;;;;;;;13.15;4.68;;;;;;;17.61;100.00;100203.09;5050780;28;20096;-83
2022/08/18 12:10:14;;;;;;;11.88;5.70;;;;;;;17.80;100.00;100213.16;5039605;28;20059;-83